• Join FlightAware (Why Join?)
  • Login
  • US Flag 
03:00AM EDT


 

Airport Tracker/Info


-or-


 

Live Flight TrackerFlight Track Log ✈ FSR411 ✈ 29-Nov-2013 ✈ KABE - KCMI

Flight Track Log - Related Links

Times and Time Zones

All times are in EST time to prevent confusion due to time zone crossing. See the FSR411 flight status page for this flight to view local times or setup timezone preferences in your user account.

Time Position Orientation Groundspeed Altitude Reporting Facility
EST Latitude Longitude Course Direction KTS MPH feet Rate Location/Type
02:41PM 40.5967 -75.5869 257° West 218 251 6,600  Level New York Center
02:42PM 40.5825 -75.6789 259° West 239 275 8,800 2,640 Climbing New York Center
02:43PM 40.5475 -75.7692 243° Southwest 258 297 11,900 3,480 Climbing New York Center
02:44PM 40.5017 -75.8642 238° Southwest 291 335 15,800 4,020 Climbing New York Center
02:45PM 40.4556 -75.9669 240° Southwest 315 362 20,000 3,960 Climbing New York Center
02:46PM 40.4092 -76.0700 239° Southwest 322 371 23,800 3,480 Climbing New York Center
02:47PM 40.3794 -76.1794 250° West 322 371 27,000 3,000 Climbing New York Center
02:48PM 40.3803 -76.2939 271° West 313 360 29,800 2,520 Climbing New York Center
02:49PM 40.3789 -76.4108 269° West 318 366 32,100 2,100 Climbing New York Center
02:50PM 40.3772 -76.5308 269° West 332 382 34,100 1,680 Climbing New York Center
02:51PM 40.3756 -76.6531 269° West 332 382 35,600 1,260 Climbing New York Center
02:52PM 40.3711 -76.7783 267° West 337 388 36,700 1,020 Climbing New York Center
02:53PM 40.3689 -76.9061 269° West 350 403 37,700 960 Climbing New York Center
02:54PM 40.3683 -77.0369 270° West 355 409 38,700 900 Climbing New York Center
02:56PM 40.3661 -77.2133 269° West 354 407 40,000 480 Climbing Cleveland Center
02:57PM 40.3631 -77.3475 268° West 365 420 40,000  Level Cleveland Center
02:58PM 40.3592 -77.5125 268° West 377 434 40,000  Level Cleveland Center
02:59PM 40.3558 -77.6494 268° West 376 433 40,000  Level Cleveland Center
03:00PM 40.3522 -77.7883 268° West 382 440 40,000  Level Cleveland Center
03:01PM 40.3492 -77.9275 268° West 383 441 40,000  Level Cleveland Center
03:02PM 40.3458 -78.0656 268° West 381 438 40,000  Level Cleveland Center
03:03PM 40.3414 -78.2047 268° West 382 440 40,000  Level Cleveland Center
03:04PM 40.3375 -78.3444 268° West 384 442 40,000  Level Cleveland Center
03:05PM 40.3331 -78.4839 268° West 384 442 40,000  Level Cleveland Center
03:06PM 40.3283 -78.6514 268° West 385 443 40,000  Level Cleveland Center
03:07PM 40.3242 -78.7919 268° West 387 445 40,000  Level Cleveland Center
03:08PM 40.3183 -78.9331 267° West 389 448 40,000  Level Cleveland Center
03:09PM 40.3156 -79.0756 269° West 392 451 40,000  Level Cleveland Center
03:10PM 40.3106 -79.2164 267° West 389 448 40,000  Level Cleveland Center
03:11PM 40.3031 -79.3753 267° West 393 452 40,000  Level Cleveland Center
03:12PM 40.2972 -79.5175 267° West 392 451 40,000  Level Cleveland Center
03:13PM 40.2911 -79.6586 267° West 390 449 40,000  Level Cleveland Center
03:14PM 40.2847 -79.7994 267° West 387 445 40,000  Level Cleveland Center
03:15PM 40.2778 -79.9403 266° West 386 444 40,000  Level Cleveland Center
03:16PM 40.2725 -80.0839 267° West 389 448 40,000  Level Cleveland Center
03:17PM 40.2664 -80.2267 267° West 386 444 40,000  Level Cleveland Center
03:18PM 40.2592 -80.3697 266° West 388 447 40,000  Level Cleveland Center
03:19PM 40.2525 -80.5108 267° West 389 448 40,000  Level Cleveland Center
03:20PM 40.2458 -80.6497 266° West 384 442 40,000  Level Cleveland Center
03:21PM 40.2381 -80.8150 267° West 380 437 40,000  Level Cleveland Center
03:22PM 40.2303 -80.9533 266° West 381 438 40,000  Level Cleveland Center
03:23PM 40.2222 -81.0931 266° West 385 443 40,000  Level Cleveland Center
03:24PM 40.2164 -81.1922 266° West 387 445 40,000  Level Indianapolis Center
03:25PM 40.2086 -81.3342 266° West 389 448 40,000  Level Indianapolis Center
03:26PM 40.2003 -81.4781 266° West 392 451 40,000  Level Indianapolis Center
03:27PM 40.1914 -81.6219 265° West 393 452 40,000  Level Indianapolis Center
03:28PM 40.1831 -81.7656 266° West 393 452 40,000  Level Indianapolis Center
03:29PM 40.1750 -81.9008 266° West 395 455 40,000  Level Indianapolis Center
03:30PM 40.1653 -82.0725 266° West 397 457 40,000  Level Indianapolis Center
03:31PM 40.1561 -82.2131 265° West 390 449 40,000  Level Indianapolis Center
03:32PM 40.1464 -82.3536 265° West 391 450 40,000  Level Indianapolis Center
03:33PM 40.1372 -82.4936 265° West 388 447 40,000  Level Indianapolis Center
03:34PM 40.1281 -82.6342 265° West 390 449 40,000  Level Indianapolis Center
03:35PM 40.1183 -82.7761 265° West 392 451 40,000  Level Indianapolis Center
03:36PM 40.1086 -82.9172 265° West 393 452 40,000  Level Indianapolis Center
03:37PM 40.0961 -83.0864 265° West 392 451 40,000  Level Indianapolis Center
03:39PM 40.0858 -83.2278 265° West 394 453 40,000  Level Indianapolis Center
03:40PM 40.0769 -83.3669 265° West 391 450 40,000  Level Indianapolis Center
03:41PM 40.0658 -83.5067 264° West 393 452 40,000  Level Indianapolis Center
03:42PM 40.0550 -83.6467 264° West 395 455 40,000  Level Indianapolis Center
03:43PM 40.0444 -83.7878 264° West 396 456 40,000  Level Indianapolis Center
03:44PM 40.0311 -83.9586 264° West 398 458 40,000  Level Indianapolis Center
03:45PM 40.0203 -84.1000 264° West 395 455 40,000 -300 Level Indianapolis Center
03:46PM 40.0078 -84.2419 263° West 394 453 39,400 -1,080 Descending Indianapolis Center
03:47PM 39.9978 -84.3836 265° West 394 453 37,900 -1,500 Descending Indianapolis Center
03:48PM 39.9856 -84.5253 264° West 396 456 36,400 -960 Descending Indianapolis Center
03:49PM 39.9708 -84.6694 262° West 400 460 36,000 -240 Descending Indianapolis Center
03:50PM 39.9597 -84.8150 264° West 405 466 36,000  Level Indianapolis Center
03:51PM 39.9461 -84.9631 263° West 406 467 36,000  Level Indianapolis Center
03:52PM 39.9308 -85.1381 264° West 406 467 36,000  Level Indianapolis Center
03:53PM 39.9186 -85.2833 264° West 405 466 36,000 -120 Level Indianapolis Center
03:54PM 39.9050 -85.4269 263° West 403 464 35,800 -840 Descending Indianapolis Center
03:55PM 39.8919 -85.5689 263° West 400 460 34,300 -1,560 Descending Indianapolis Center
03:56PM 39.8783 -85.7150 263° West 404 465 32,700 -1,560 Descending Indianapolis Center
03:57PM 39.8644 -85.8636 263° West 414 476 31,200 -1,560 Descending Indianapolis Center
03:58PM 39.8500 -86.0106 263° West 414 476 29,600 -1,680 Descending Indianapolis Center
03:59PM 39.8325 -86.1897 263° West 422 486 27,800 -1,740 Descending Indianapolis Center
04:00PM 39.8183 -86.3350 263° West 424 488 26,100 -1,740 Descending Indianapolis Center
04:01PM 39.8289 -86.4814 275° West 417 480 24,300 -1,800 Descending Indianapolis Center
04:02PM 39.8475 -86.6239 280° West 407 468 22,500 -1,920 Descending Indianapolis Center
04:03PM 39.8675 -86.7900 279° West 393 452 20,400 -1,860 Descending Indianapolis Center
04:04PM 39.8836 -86.9267 279° West 386 444 18,700 -1,380 Descending Indianapolis Center
04:05PM 39.8997 -87.0619 279° West 382 440 17,600 -1,320 Descending Indianapolis Center
04:06PM 39.9153 -87.1939 279° West 374 430 16,000 -1,620 Descending Indianapolis Center
04:07PM 39.9308 -87.3219 279° West 366 421 14,300 -1,680 Descending Indianapolis Center
04:08PM 39.9447 -87.4450 278° West 352 405 12,600 -1,620 Descending Indianapolis Center
04:09PM 39.9592 -87.5689 279° West 349 402 11,100 -840 Descending Indianapolis Center
04:10PM 39.9725 -87.6861 278° West 336 387 10,900 -840 Descending Indianapolis Center
04:11PM 39.9867 -87.8050 279° West 281 323 9,400 -1,800 Descending Indianapolis Center
04:12PM 39.9978 -87.8994 279° West 266 306 7,100 -2,100 Descending Chicago Center
04:14PM 40.0094 -88.0047 278° West 270 311 4,800 -2,280 Descending Chicago Center
04:15PM 40.0167 -88.1336 270° West  Level FlightAware Approximate
04:22PM 40.0333 -88.2667 288° West  Level FlightAware Approximate
04:23PM 40.0388 -88.2778 288° West  Level Estimated
04:24PM 40.0388 -88.2778 288° West  Level Estimated
04:25PM 40.0388 -88.2778 288° West  Level Estimated
04:26PM 40.0388 -88.2778 288° West  Level Estimated
04:27PM 40.0388 -88.2778 288° West  Level Estimated